Welcome, MN

5:45 PM CST on December 28, 2014 (GMT -0600)
Fairmont Municipal | Change Station
CLOSE
Current Station
Airport
Location: Fairmont,
Elevation: 1161 ft
Nearby Weather Stations

Elev 1161 ft 43.65 °N, 94.42 °W | Updated 10 minutes ago

Overcast
Overcast
18 °F
Feels Like 7 °F
N
8
Wind Variable Wind from North

Today
High -- | Low -- °F
--% Chance of Precip.
Yesterday
High -- | Low -- °F
Precip. -- in
7:51 AM 4:48 PM
First Quarter, 52% visible
Pressure 30.19 in
Visibility 1.5 miles
Clouds Overcast 200 ft
Windchill 7 °F
Dew Point 12 °F
Humidity 79%
Rainfall 0.00 in
Snow Depth Not available.
UV 0 out of 12
Pollen .10 out of 12
Air Quality Not available.
Flu Activity Not available.
METAR KFRM 282335Z AUTO 36007KT 1 1/2SM OVC002 M08/M11 A3019 RMK AO1

More Conditions Fewer Conditions

Pressure 30.19 in
Visibility 1.5 miles
Clouds Overcast 200 ft
Windchill 7 °F
Dew Point 12 °F
Humidity 79%
Rainfall 0.00 in
Snow Depth Not available.
UV 0 out of 12
Pollen .10 out of 12
Air Quality Not available.
Flu Activity Not available.
METAR KFRM 282335Z AUTO 36007KT 1 1/2SM OVC002 M08/M11 A3019 RMK AO1

More Conditions Fewer Conditions

Nowcast | as of 2:50 PM CST on December 28, 2014

Freezing fog will continue across much of Watonwan...southern Brown and the northern half of Martin counties into the 4 PM hour. Visibilities will average in the one half mile to two mile range...with areas below one quarter of a mile. Motorists are urged to curb their speed as roadways remain slick from the additional moisture. The area of fog will be slow to dissipate..and continue to slowly trek south expanding across Martin County...and exiting southern Brown County by 5 PM. Fog will continue across Martin and Watonwan counties until at least 6 PM.

×

10-Day Weather Forecast

Almanac

Astronomy

Dec. 28, 2014 Rise Set
Actual Time
Civil Twilight
Nautical Twilight
Astronomical Twilight
Moon
Length of Visible Light
Length of Day
Tomorrow will be .
, % of the Moon is Illuminated

Today's Extremes

State Highs State Lows

Community

WunderPhotos

Upload Photos

1,781,460 photos uploaded!

WunderBlogs® & News

Nearby

Air Quality

  Air Quality AQ Index Pollutant
Not available.

Snow Depth

Station Depth Elevation

Earthquake Activity

City Distance Mag. Time & Date
Minimum magnitude displayed is 2.5.

Coastal Water Temperatures

Place Temperature

Nearby Weather Stations